Sanford, TX (79078)

5:30 PM CDT on July 12, 2014 (GMT -0500)
Borger Country Club (KTXBORGE1) Elev 3239 ft | 35.64 °N, 101.45 °W | Change Station

Current weather conditions updated 2 seconds ago

Clear
Clear
91.4 °F
Feels Like 92 °F
N
6.0
Wind Variable Wind from South
Gusts 6.0 mph

Tomorrow is forecast to be Warmer than today. Scattered thunderstorms possible tomorrow night.

Today
High -- | Low -- °F
--% Chance of Precip.
Yesterday
High -- | Low -- °F
Precip. -- in
6:39 AM 9:03 PM
Full, 100% visible
Pressure 29.97 in
Visibility 10.0 miles
Clouds Clear
Heat Index 92 °F
Dew Point 62 °F
Humidity 38%
Rainfall 0.00 in
Snow Depth Not available.
UV 1.3 out of 12
Pollen 4.50 out of 12
Air Quality Not available.
Flu Activity Sporadic
METAR KBGD 122051Z AUTO 20011G19KT 170V230 10SM CLR 33/14 A3011 RMK AO2 SLP147 T03330144 56019

More Conditions Fewer Conditions

Pressure 29.97 in
Visibility 10.0 miles
Clouds Clear
Heat Index 92 °F
Dew Point 62 °F
Humidity 38%
Rainfall 0.00 in
Snow Depth Not available.
UV 1.3 out of 12
Pollen 4.50 out of 12
Air Quality Not available.
Flu Activity Sporadic
METAR KBGD 122051Z AUTO 20011G19KT 170V230 10SM CLR 33/14 A3011 RMK AO2 SLP147 T03330144 56019

More Conditions Fewer Conditions

10-Day Weather Forecast

Almanac

Astronomy

Jul. 12, 2014 Rise Set
Actual Time 6:39 AM CDT 9:03 PM CDT
Civil Twilight 6:10 AM CDT 9:32 PM CDT
Nautical Twilight 5:33 AM CDT 10:09 PM CDT
Astronomical Twilight 4:54 AM CDT 10:48 PM CDT
Moon 9:10 PM CDT 6:58 AM CDT
Length of Visible Light 15h 22m
Length of Day
14h 23m
Tomorrow will be 1m 2s shorter.
Full, 100% of the Moon is Illuminated
Today
Full
Jul 18
Last Quarter
Jul 26
New
Aug 3
First Quarter
Aug 10
Full

Today's Extremes

State Highs State Lows

Community

WunderPhotos

Upload Photos

1,732,990 photos uploaded!

Nearby

Snow Depth

Station Depth Elevation
No new snow has been reported.

Earthquake Activity

City Distance Mag. Time & Date
No recent earthquake activity has been reported nearby.
Minimum magnitude displayed is 2.5.

Coastal Water Temperatures

Place Temperature
No Stations Reporting

Nearby Weather Stations

Station Location Temp. Heat Index Dew Point Humidity Wind Precip. Elev Updated Type
Borger Country Club, Borger, TX 91.4 °F 92 °F 62 °F 38% South  at  6.0 mph 0.00 in / hr 3239 ft 5:30 PM CDT Rapid Fire
Yucca Park, Borger, TX 93.1 °F 94 °F 62 °F 36% SSE  at  10.0 mph 0.00 in / hr 3156 ft 5:30 PM CDT Rapid Fire

Show More Stations Show Fewer Stations